Accueil
METAR-TAF:

METAR-TAF

Aéroports :

Novare, Italie

Base aérienne Cameri

latitude: 45-31N, longitude: 008-40E, altitude: 178 m

Observation

Le bulletin a été fait il y a 7 heures et 57 minutes, à 17:55 UTC
Vent 7 kt de sud
Température 31°C
Humidité 55%
Pression 1014 hPa
Visibilité 10 km ou plus
Quelques nuages à une hauteur de 3000 ft

METAR: LIMN 231755Z 19007KT 9999 FEW030 31/21 Q1014 RMK FEW VIS MIN 9999 BLU

Heure: 03:52 (01:52 UTC)

Prévision

Le bulletin a été fait il y a 11 heures et 52 minutes, à 14:00 UTC
Prévision valable du 23 à 15 UTC au 23 à 24 UTC
Vent 5 kt de ouest/sud-ouest
Visibilité 10 km ou plus
pas de nuages en-dessous de 1500 mètres et pas de cumulonimbus.
Temporairement
du 23 à 15 UTC au 23 à 22 UTC
Vent 15 kt de ouest/sud-ouest

TAF: LIMN 231400Z 2315/2324 24005KT CAVOK TEMPO 2315/2322 24015KT

Observations et prévisions météorologiques de plus de 4000 aéroports (messages METAR et TAF).

Les stations disponibles sont représentées par des disques jaunes et rouges sur la carte.

Passer la souris dessus pour voir le nom de la station.

Cliquer dessus pour voir les observations et prévisions météorologiques.

Pour changer de carte: cliquez sur les boutons verts avec une croix noire pour zoomer, sur le bouton vert avec un tiret pour effectuer un zoom arrière, ou sur les flèches vertes pour les cartes adjacentes.


METAR-TAF: